Magnus Stedje Fossen har fløyet solo PDF Skriv ut E-post
Skrevet av Dmytro Yakovenko   
fredag 28. juli 2017 22:41

Magnus Stedje Fossen fløy soloutsjekk med Hallgeir Olsen og sin første solotur i dag, 28. juli 2017. Magnus er den andre som har fløyet solo i løpet av en uke og det er gledelig at det skjer mye i flyskolen for tiden. Selv om sommerværet satt en stopper for soloutsjekken i går ble den fullført i dag og etter en liten time i luften med assisterende skolesjef, ble Magnus sendt på sine første solo landingsrunder. Skolen og Styret gratulerer Magnus med en vel gjennomført solotur og ønsker han lykke til med resten av skoleprogrammet. Hovedinstruktøren har vært Dmytro Yakovenko.

Sist oppdatert fredag 28. juli 2017 22:48
 
 
METAR
2017/11/22 16:20 ENCN 221620Z 04009KT 7000 -RA FEW003 OVC010 01/00 Q0991
TAF
2017/11/22 15:37 TAF ENCN 221400Z 2215/2222 06008KT 8000 -RA OVC012 TEMPO 2215/2221 2000 RADZ BR OVC004 BECMG 2220/2222 20015KT
LN-KFK
Til service
VFR dag
07:42 - 16:44
Brannvakt
Inaktiv
Banner
Banner
Banner
Banner
Banner